sensor_id;sensor_type;location;lat;lon;timestamp;pressure;altitude;pressure_sealevel;temperature;humidity
62418;BME280;48456;54.242;10.280;2023-03-15T00:00:42;100379.06;;;0.24;100.00
62418;BME280;48456;54.242;10.280;2023-03-15T00:03:09;100383.53;;;0.28;100.00
62418;BME280;48456;54.242;10.280;2023-03-15T00:05:35;100387.66;;;0.21;100.00
62418;BME280;48456;54.242;10.280;2023-03-15T00:08:02;100385.75;;;0.16;100.00
62418;BME280;48456;54.242;10.280;2023-03-15T00:10:29;100390.91;;;0.14;100.00
62418;BME280;48456;54.242;10.280;2023-03-15T00:12:56;100389.19;;;0.15;100.00
62418;BME280;48456;54.242;10.280;2023-03-15T00:15:22;100390.94;;;0.16;100.00
62418;BME280;48456;54.242;10.280;2023-03-15T00:17:48;100400.38;;;0.12;100.00
62418;BME280;48456;54.242;10.280;2023-03-15T00:23:39;100417.34;;;0.01;100.00
62418;BME280;48456;54.242;10.280;2023-03-15T00:29:39;100423.03;;;-0.11;100.00
62418;BME280;48456;54.242;10.280;2023-03-15T00:32:30;100422.88;;;-0.16;100.00
62418;BME280;48456;54.242;10.280;2023-03-15T00:41:55;100430.00;;;-0.10;100.00
62418;BME280;48456;54.242;10.280;2023-03-15T00:44:27;100442.38;;;-0.03;100.00
62418;BME280;48456;54.242;10.280;2023-03-15T00:47:02;100460.66;;;-0.02;100.00
62418;BME280;48456;54.242;10.280;2023-03-15T00:49:29;100477.66;;;-0.11;100.00
62418;BME280;48456;54.242;10.280;2023-03-15T00:51:55;100484.19;;;-0.23;100.00
62418;BME280;48456;54.242;10.280;2023-03-15T00:54:21;100489.13;;;-0.31;100.00
62418;BME280;48456;54.242;10.280;2023-03-15T00:57:07;100501.94;;;-0.35;100.00
62418;BME280;48456;54.242;10.280;2023-03-15T01:06:26;100534.56;;;-0.44;100.00
62418;BME280;48456;54.242;10.280;2023-03-15T01:09:14;100524.03;;;-0.48;100.00
62418;BME280;48456;54.242;10.280;2023-03-15T01:11:53;100524.81;;;-0.51;100.00
62418;BME280;48456;54.242;10.280;2023-03-15T01:14:22;100526.56;;;-0.50;100.00
62418;BME280;48456;54.242;10.280;2023-03-15T01:17:00;100525.72;;;-0.49;100.00
62418;BME280;48456;54.242;10.280;2023-03-15T01:19:32;100528.31;;;-0.49;100.00
62418;BME280;48456;54.242;10.280;2023-03-15T01:21:59;100533.72;;;-0.44;100.00
62418;BME280;48456;54.242;10.280;2023-03-15T01:24:25;100523.41;;;-0.41;100.00
62418;BME280;48456;54.242;10.280;2023-03-15T01:26:54;100530.38;;;-0.40;100.00
62418;BME280;48456;54.242;10.280;2023-03-15T01:29:27;100538.94;;;-0.43;100.00
62418;BME280;48456;54.242;10.280;2023-03-15T01:34:48;100537.03;;;-0.48;100.00
62418;BME280;48456;54.242;10.280;2023-03-15T01:37:38;100540.22;;;-0.56;100.00
62418;BME280;48456;54.242;10.280;2023-03-15T01:43:21;100541.53;;;-0.67;100.00
62418;BME280;48456;54.242;10.280;2023-03-15T01:46:40;100552.53;;;-0.74;100.00
62418;BME280;48456;54.242;10.280;2023-03-15T01:52:18;100561.75;;;-0.83;100.00
62418;BME280;48456;54.242;10.280;2023-03-15T01:55:14;100563.50;;;-0.82;100.00
62418;BME280;48456;54.242;10.280;2023-03-15T01:57:51;100561.03;;;-0.79;100.00
62418;BME280;48456;54.242;10.280;2023-03-15T02:00:40;100561.19;;;-0.74;100.00
62418;BME280;48456;54.242;10.280;2023-03-15T02:05:59;100543.25;;;-0.68;100.00
62418;BME280;48456;54.242;10.280;2023-03-15T02:08:50;100555.53;;;-0.63;100.00
62418;BME280;48456;54.242;10.280;2023-03-15T02:17:41;100549.00;;;-0.52;100.00
62418;BME280;48456;54.242;10.280;2023-03-15T02:29:37;100618.56;;;-0.45;100.00
62418;BME280;48456;54.242;10.280;2023-03-15T02:35:24;100619.47;;;-0.44;100.00
62418;BME280;48456;54.242;10.280;2023-03-15T02:41:47;100624.53;;;-0.47;100.00
62418;BME280;48456;54.242;10.280;2023-03-15T02:44:40;100626.31;;;-0.46;100.00
62418;BME280;48456;54.242;10.280;2023-03-15T02:47:27;100630.72;;;-0.44;100.00
62418;BME280;48456;54.242;10.280;2023-03-15T02:50:10;100643.72;;;-0.44;100.00
62418;BME280;48456;54.242;10.280;2023-03-15T02:52:54;100648.09;;;-0.43;100.00
62418;BME280;48456;54.242;10.280;2023-03-15T02:55:20;100656.84;;;-0.41;100.00
62418;BME280;48456;54.242;10.280;2023-03-15T02:58:04;100658.66;;;-0.38;100.00
62418;BME280;48456;54.242;10.280;2023-03-15T03:00:31;100669.25;;;-0.33;100.00
62418;BME280;48456;54.242;10.280;2023-03-15T03:05:51;100689.16;;;-0.34;100.00
62418;BME280;48456;54.242;10.280;2023-03-15T03:08:33;100692.59;;;-0.35;100.00
62418;BME280;48456;54.242;10.280;2023-03-15T03:11:20;100707.94;;;-0.41;100.00
62418;BME280;48456;54.242;10.280;2023-03-15T03:16:56;100715.22;;;-0.55;100.00
62418;BME280;48456;54.242;10.280;2023-03-15T03:19:23;100709.88;;;-0.58;100.00
62418;BME280;48456;54.242;10.280;2023-03-15T03:22:01;100708.06;;;-0.61;100.00
62418;BME280;48456;54.242;10.280;2023-03-15T03:28:27;100649.75;;;-0.68;100.00
62418;BME280;48456;54.242;10.280;2023-03-15T03:31:18;100655.59;;;-0.73;100.00
62418;BME280;48456;54.242;10.280;2023-03-15T03:33:58;100661.50;;;-0.77;100.00
62418;BME280;48456;54.242;10.280;2023-03-15T03:40:17;100679.34;;;-0.85;100.00
62418;BME280;48456;54.242;10.280;2023-03-15T03:42:59;100681.84;;;-0.88;100.00
62418;BME280;48456;54.242;10.280;2023-03-15T03:46:01;100674.69;;;-0.94;100.00
62418;BME280;48456;54.242;10.280;2023-03-15T03:48:49;100690.00;;;-1.00;100.00
62418;BME280;48456;54.242;10.280;2023-03-15T03:54:40;100686.97;;;-1.11;100.00
62418;BME280;48456;54.242;10.280;2023-03-15T04:00:47;100707.22;;;-1.24;100.00
62418;BME280;48456;54.242;10.280;2023-03-15T04:03:34;100709.72;;;-1.27;100.00
62418;BME280;48456;54.242;10.280;2023-03-15T04:09:01;100727.50;;;-1.36;100.00
62418;BME280;48456;54.242;10.280;2023-03-15T04:11:29;100734.22;;;-1.40;100.00
62418;BME280;48456;54.242;10.280;2023-03-15T04:13:55;100738.56;;;-1.40;100.00
62418;BME280;48456;54.242;10.280;2023-03-15T04:16:24;100751.53;;;-1.40;100.00
62418;BME280;48456;54.242;10.280;2023-03-15T04:18:50;100756.66;;;-1.42;100.00
62418;BME280;48456;54.242;10.280;2023-03-15T04:21:17;100763.47;;;-1.44;100.00
62418;BME280;48456;54.242;10.280;2023-03-15T04:23:48;100765.91;;;-1.47;100.00
62418;BME280;48456;54.242;10.280;2023-03-15T04:26:14;100771.25;;;-1.44;100.00
62418;BME280;48456;54.242;10.280;2023-03-15T04:28:41;100774.59;;;-1.47;100.00
62418;BME280;48456;54.242;10.280;2023-03-15T04:31:09;100778.16;;;-1.45;100.00
62418;BME280;48456;54.242;10.280;2023-03-15T04:33:39;100772.91;;;-1.46;100.00
62418;BME280;48456;54.242;10.280;2023-03-15T04:36:06;100775.50;;;-1.46;100.00
62418;BME280;48456;54.242;10.280;2023-03-15T04:38:32;100777.13;;;-1.48;100.00
62418;BME280;48456;54.242;10.280;2023-03-15T04:41:00;100778.78;;;-1.50;100.00
62418;BME280;48456;54.242;10.280;2023-03-15T04:43:26;100778.63;;;-1.53;100.00
62418;BME280;48456;54.242;10.280;2023-03-15T04:45:53;100781.22;;;-1.53;100.00
62418;BME280;48456;54.242;10.280;2023-03-15T04:48:19;100781.16;;;-1.55;100.00
62418;BME280;48456;54.242;10.280;2023-03-15T04:50:45;100792.53;;;-1.51;100.00
62418;BME280;48456;54.242;10.280;2023-03-15T04:53:13;100789.34;;;-1.46;100.00
62418;BME280;48456;54.242;10.280;2023-03-15T04:55:39;100793.03;;;-1.40;100.00
62418;BME280;48456;54.242;10.280;2023-03-15T04:58:05;100788.03;;;-1.36;100.00
62418;BME280;48456;54.242;10.280;2023-03-15T05:00:32;100798.63;;;-1.31;100.00
62418;BME280;48456;54.242;10.280;2023-03-15T05:02:59;100793.56;;;-1.28;100.00
62418;BME280;48456;54.242;10.280;2023-03-15T05:05:26;100809.22;;;-1.26;100.00
62418;BME280;48456;54.242;10.280;2023-03-15T05:07:54;100807.50;;;-1.26;100.00
62418;BME280;48456;54.242;10.280;2023-03-15T05:10:23;100804.97;;;-1.24;100.00
62418;BME280;48456;54.242;10.280;2023-03-15T05:12:56;100811.03;;;-1.24;100.00
62418;BME280;48456;54.242;10.280;2023-03-15T05:15:25;100805.06;;;-1.23;100.00
62418;BME280;48456;54.242;10.280;2023-03-15T05:17:52;100811.25;;;-1.19;100.00
62418;BME280;48456;54.242;10.280;2023-03-15T05:20:21;100819.94;;;-1.19;100.00
62418;BME280;48456;54.242;10.280;2023-03-15T05:22:47;100826.84;;;-1.19;100.00
62418;BME280;48456;54.242;10.280;2023-03-15T05:25:14;100828.34;;;-1.24;100.00
62418;BME280;48456;54.242;10.280;2023-03-15T05:27:40;100835.22;;;-1.25;100.00
62418;BME280;48456;54.242;10.280;2023-03-15T05:30:07;100833.63;;;-1.23;100.00
62418;BME280;48456;54.242;10.280;2023-03-15T05:32:33;100845.75;;;-1.22;100.00
62418;BME280;48456;54.242;10.280;2023-03-15T05:35:00;100853.56;;;-1.22;100.00
62418;BME280;48456;54.242;10.280;2023-03-15T05:37:27;100854.38;;;-1.23;100.00
62418;BME280;48456;54.242;10.280;2023-03-15T05:39:54;100862.25;;;-1.21;100.00
62418;BME280;48456;54.242;10.280;2023-03-15T05:42:20;100856.22;;;-1.20;100.00
62418;BME280;48456;54.242;10.280;2023-03-15T05:44:51;100859.69;;;-1.20;100.00
62418;BME280;48456;54.242;10.280;2023-03-15T05:47:18;100864.06;;;-1.19;100.00
62418;BME280;48456;54.242;10.280;2023-03-15T05:49:45;100869.34;;;-1.17;100.00
62418;BME280;48456;54.242;10.280;2023-03-15T05:52:11;100863.25;;;-1.18;100.00
62418;BME280;48456;54.242;10.280;2023-03-15T05:54:37;100867.53;;;-1.18;100.00
62418;BME280;48456;54.242;10.280;2023-03-15T05:57:04;100867.53;;;-1.18;100.00
62418;BME280;48456;54.242;10.280;2023-03-15T05:59:30;100877.25;;;-1.14;100.00
62418;BME280;48456;54.242;10.280;2023-03-15T06:01:57;100879.03;;;-1.13;100.00
62418;BME280;48456;54.242;10.280;2023-03-15T06:04:23;100887.16;;;-1.05;100.00
62418;BME280;48456;54.242;10.280;2023-03-15T06:06:50;100888.41;;;-0.97;100.00
62418;BME280;48456;54.242;10.280;2023-03-15T06:09:17;100890.44;;;-0.89;100.00
62418;BME280;48456;54.242;10.280;2023-03-15T06:11:43;100901.84;;;-0.86;100.00
62418;BME280;48456;54.242;10.280;2023-03-15T06:14:10;100903.69;;;-0.83;100.00
62418;BME280;48456;54.242;10.280;2023-03-15T06:16:36;100912.56;;;-0.78;100.00
62418;BME280;48456;54.242;10.280;2023-03-15T06:19:02;100917.84;;;-0.76;100.00
62418;BME280;48456;54.242;10.280;2023-03-15T06:21:29;100923.34;;;-0.69;100.00
62418;BME280;48456;54.242;10.280;2023-03-15T06:23:55;100925.84;;;-0.72;100.00
62418;BME280;48456;54.242;10.280;2023-03-15T06:26:22;100934.56;;;-0.70;100.00
62418;BME280;48456;54.242;10.280;2023-03-15T06:28:48;100938.84;;;-0.72;100.00
62418;BME280;48456;54.242;10.280;2023-03-15T06:31:14;100948.47;;;-0.69;100.00
62418;BME280;48456;54.242;10.280;2023-03-15T06:33:41;100957.81;;;-0.73;100.00
62418;BME280;48456;54.242;10.280;2023-03-15T06:36:07;100955.59;;;-0.65;100.00
62418;BME280;48456;54.242;10.280;2023-03-15T06:38:34;100953.75;;;-0.68;100.00
62418;BME280;48456;54.242;10.280;2023-03-15T06:41:00;100944.09;;;-0.70;100.00
62418;BME280;48456;54.242;10.280;2023-03-15T06:43:27;100927.47;;;-0.74;100.00
62418;BME280;48456;54.242;10.280;2023-03-15T06:45:53;100928.91;;;-0.81;100.00
62418;BME280;48456;54.242;10.280;2023-03-15T06:48:21;100927.69;;;-0.89;100.00
62418;BME280;48456;54.242;10.280;2023-03-15T06:50:47;100933.47;;;-0.95;100.00
62418;BME280;48456;54.242;10.280;2023-03-15T06:53:14;100950.56;;;-1.00;100.00
62418;BME280;48456;54.242;10.280;2023-03-15T06:55:41;100946.06;;;-1.04;100.00
62418;BME280;48456;54.242;10.280;2023-03-15T06:58:08;100951.47;;;-0.99;100.00
62418;BME280;48456;54.242;10.280;2023-03-15T07:00:35;100954.34;;;-0.93;100.00
62418;BME280;48456;54.242;10.280;2023-03-15T07:03:01;100959.75;;;-0.88;100.00
62418;BME280;48456;54.242;10.280;2023-03-15T07:05:29;100963.66;;;-0.79;100.00
62418;BME280;48456;54.242;10.280;2023-03-15T07:07:57;100966.50;;;-0.72;100.00
62418;BME280;48456;54.242;10.280;2023-03-15T07:10:23;100975.75;;;-0.59;100.00
62418;BME280;48456;54.242;10.280;2023-03-15T07:12:49;100973.41;;;-0.53;100.00
62418;BME280;48456;54.242;10.280;2023-03-15T07:15:16;100971.91;;;-0.48;100.00
62418;BME280;48456;54.242;10.280;2023-03-15T07:17:42;100980.66;;;-0.46;100.00
62418;BME280;48456;54.242;10.280;2023-03-15T07:20:09;100985.44;;;-0.35;100.00
62418;BME280;48456;54.242;10.280;2023-03-15T07:22:36;100981.38;;;-0.29;100.00
62418;BME280;48456;54.242;10.280;2023-03-15T07:25:02;100985.09;;;-0.23;100.00
62418;BME280;48456;54.242;10.280;2023-03-15T07:27:30;100980.00;;;-0.20;100.00
62418;BME280;48456;54.242;10.280;2023-03-15T07:29:56;100981.16;;;-0.14;100.00
62418;BME280;48456;54.242;10.280;2023-03-15T07:32:22;100978.81;;;-0.07;100.00
62418;BME280;48456;54.242;10.280;2023-03-15T07:34:49;100981.72;;;0.01;100.00
62418;BME280;48456;54.242;10.280;2023-03-15T07:37:15;100981.81;;;0.02;100.00
62418;BME280;48456;54.242;10.280;2023-03-15T07:39:42;100986.31;;;0.06;100.00
62418;BME280;48456;54.242;10.280;2023-03-15T07:42:08;100991.72;;;0.11;100.00
62418;BME280;48456;54.242;10.280;2023-03-15T07:44:35;100999.75;;;0.17;100.00
62418;BME280;48456;54.242;10.280;2023-03-15T07:47:01;100996.47;;;0.21;100.00
62418;BME280;48456;54.242;10.280;2023-03-15T07:49:28;100994.78;;;0.23;100.00
62418;BME280;48456;54.242;10.280;2023-03-15T07:51:56;100995.97;;;0.30;100.00
62418;BME280;48456;54.242;10.280;2023-03-15T07:54:22;101000.00;;;0.45;100.00
62418;BME280;48456;54.242;10.280;2023-03-15T07:56:48;101000.78;;;0.65;100.00
62418;BME280;48456;54.242;10.280;2023-03-15T07:59:15;101006.13;;;0.68;100.00
62418;BME280;48456;54.242;10.280;2023-03-15T08:01:41;101005.00;;;0.61;100.00
62418;BME280;48456;54.242;10.280;2023-03-15T08:04:07;101011.91;;;0.61;100.00
62418;BME280;48456;54.242;10.280;2023-03-15T08:06:34;101008.44;;;0.60;100.00
62418;BME280;48456;54.242;10.280;2023-03-15T08:09:00;101000.06;;;0.69;100.00
62418;BME280;48456;54.242;10.280;2023-03-15T08:11:29;101007.53;;;0.83;100.00
62418;BME280;48456;54.242;10.280;2023-03-15T08:13:56;101003.59;;;0.93;100.00
62418;BME280;48456;54.242;10.280;2023-03-15T08:16:22;100999.09;;;1.11;100.00
62418;BME280;48456;54.242;10.280;2023-03-15T08:18:48;101002.88;;;1.20;100.00
62418;BME280;48456;54.242;10.280;2023-03-15T08:21:15;101002.03;;;1.45;100.00
62418;BME280;48456;54.242;10.280;2023-03-15T08:23:41;100997.88;;;1.75;100.00
62418;BME280;48456;54.242;10.280;2023-03-15T08:26:07;100995.00;;;1.67;100.00
62418;BME280;48456;54.242;10.280;2023-03-15T08:28:34;101010.22;;;1.80;100.00
62418;BME280;48456;54.242;10.280;2023-03-15T08:31:00;101019.69;;;1.77;100.00
62418;BME280;48456;54.242;10.280;2023-03-15T08:33:26;101019.78;;;1.80;100.00
62418;BME280;48456;54.242;10.280;2023-03-15T08:35:55;101021.50;;;1.79;100.00
62418;BME280;48456;54.242;10.280;2023-03-15T08:38:22;101024.44;;;1.64;100.00
62418;BME280;48456;54.242;10.280;2023-03-15T08:40:48;101031.88;;;1.53;100.00
62418;BME280;48456;54.242;10.280;2023-03-15T08:43:15;101035.00;;;1.43;100.00
62418;BME280;48456;54.242;10.280;2023-03-15T08:45:41;101044.25;;;1.35;100.00
62418;BME280;48456;54.242;10.280;2023-03-15T08:48:26;101052.72;;;1.29;100.00
62418;BME280;48456;54.242;10.280;2023-03-15T08:50:52;101055.09;;;1.23;100.00
62418;BME280;48456;54.242;10.280;2023-03-15T08:53:18;101061.13;;;1.22;100.00
62418;BME280;48456;54.242;10.280;2023-03-15T08:55:46;101057.63;;;1.21;100.00
62418;BME280;48456;54.242;10.280;2023-03-15T08:58:12;101060.00;;;1.15;100.00
62418;BME280;48456;54.242;10.280;2023-03-15T09:00:39;101059.25;;;1.17;100.00
62418;BME280;48456;54.242;10.280;2023-03-15T09:03:05;101056.13;;;1.26;100.00
62418;BME280;48456;54.242;10.280;2023-03-15T09:05:32;101069.88;;;1.47;100.00
62418;BME280;48456;54.242;10.280;2023-03-15T09:07:59;101073.88;;;1.61;100.00
62418;BME280;48456;54.242;10.280;2023-03-15T09:10:27;101064.69;;;1.71;100.00
62418;BME280;48456;54.242;10.280;2023-03-15T09:12:53;101070.28;;;1.82;100.00
62418;BME280;48456;54.242;10.280;2023-03-15T09:15:19;101070.06;;;1.76;100.00
62418;BME280;48456;54.242;10.280;2023-03-15T09:17:47;101080.38;;;1.73;100.00
62418;BME280;48456;54.242;10.280;2023-03-15T09:20:14;101081.38;;;1.76;100.00
62418;BME280;48456;54.242;10.280;2023-03-15T09:22:42;101081.69;;;1.84;100.00
62418;BME280;48456;54.242;10.280;2023-03-15T09:25:08;101089.59;;;2.12;100.00
62418;BME280;48456;54.242;10.280;2023-03-15T09:27:35;101083.97;;;2.25;100.00
62418;BME280;48456;54.242;10.280;2023-03-15T09:30:02;101095.25;;;2.24;100.00
62418;BME280;48456;54.242;10.280;2023-03-15T09:32:28;101095.25;;;2.24;100.00
62418;BME280;48456;54.242;10.280;2023-03-15T09:34:55;101100.91;;;2.37;100.00
62418;BME280;48456;54.242;10.280;2023-03-15T09:37:21;101091.84;;;2.53;100.00
62418;BME280;48456;54.242;10.280;2023-03-15T09:39:47;101100.78;;;2.87;100.00
62418;BME280;48456;54.242;10.280;2023-03-15T09:42:19;101104.19;;;3.12;100.00
62418;BME280;48456;54.242;10.280;2023-03-15T09:44:47;101093.91;;;3.18;100.00
62418;BME280;48456;54.242;10.280;2023-03-15T09:47:19;101103.75;;;2.98;100.00
62418;BME280;48456;54.242;10.280;2023-03-15T09:49:51;101106.13;;;2.90;100.00
62418;BME280;48456;54.242;10.280;2023-03-15T09:52:23;101105.91;;;2.84;100.00
62418;BME280;48456;54.242;10.280;2023-03-15T09:57:18;101108.84;;;2.67;100.00
62418;BME280;48456;54.242;10.280;2023-03-15T09:59:48;101119.16;;;2.63;100.00
62418;BME280;48456;54.242;10.280;2023-03-15T10:02:28;101123.66;;;2.41;100.00
62418;BME280;48456;54.242;10.280;2023-03-15T10:05:05;101123.66;;;2.41;100.00
62418;BME280;48456;54.242;10.280;2023-03-15T10:07:33;101122.34;;;2.28;100.00
62418;BME280;48456;54.242;10.280;2023-03-15T10:10:00;101106.69;;;2.28;100.00
62418;BME280;48456;54.242;10.280;2023-03-15T10:12:31;101127.16;;;2.41;100.00
62418;BME280;48456;54.242;10.280;2023-03-15T10:17:46;101121.50;;;2.55;100.00
62418;BME280;48456;54.242;10.280;2023-03-15T10:20:18;101110.63;;;2.68;100.00
62418;BME280;48456;54.242;10.280;2023-03-15T10:23:09;101113.34;;;2.71;100.00
62418;BME280;48456;54.242;10.280;2023-03-15T10:25:33;101124.78;;;2.49;100.00
62418;BME280;48456;54.242;10.280;2023-03-15T10:28:03;101135.75;;;2.13;100.00
62418;BME280;48456;54.242;10.280;2023-03-15T10:30:34;101125.47;;;1.93;100.00
62418;BME280;48456;54.242;10.280;2023-03-15T10:33:08;101132.22;;;1.88;100.00
62418;BME280;48456;54.242;10.280;2023-03-15T10:35:39;101123.50;;;1.87;100.00
62418;BME280;48456;54.242;10.280;2023-03-15T10:38:12;101130.72;;;1.94;100.00
62418;BME280;48456;54.242;10.280;2023-03-15T10:43:16;101129.44;;;2.32;100.00
62418;BME280;48456;54.242;10.280;2023-03-15T10:45:45;101135.03;;;2.43;100.00
62418;BME280;48456;54.242;10.280;2023-03-15T10:48:11;101128.53;;;2.56;100.00
62418;BME280;48456;54.242;10.280;2023-03-15T10:50:38;101123.00;;;2.74;100.00
62418;BME280;48456;54.242;10.280;2023-03-15T10:53:09;101113.41;;;2.73;100.00
62418;BME280;48456;54.242;10.280;2023-03-15T10:55:40;101119.44;;;2.98;100.00
62418;BME280;48456;54.242;10.280;2023-03-15T11:00:42;101114.19;;;3.25;100.00
62418;BME280;48456;54.242;10.280;2023-03-15T11:03:18;101122.69;;;3.47;100.00
62418;BME280;48456;54.242;10.280;2023-03-15T11:05:46;101128.94;;;3.83;100.00
62418;BME280;48456;54.242;10.280;2023-03-15T11:08:14;101119.44;;;3.87;100.00
62418;BME280;48456;54.242;10.280;2023-03-15T11:10:41;101129.31;;;3.96;100.00
62418;BME280;48456;54.242;10.280;2023-03-15T11:13:12;101131.06;;;3.97;100.00
62418;BME280;48456;54.242;10.280;2023-03-15T11:15:39;101129.47;;;4.02;100.00
62418;BME280;48456;54.242;10.280;2023-03-15T11:18:15;101123.50;;;4.08;100.00
62418;BME280;48456;54.242;10.280;2023-03-15T11:20:42;101123.44;;;4.72;100.00
62418;BME280;48456;54.242;10.280;2023-03-15T11:23:19;101127.84;;;5.92;100.00
62418;BME280;48456;54.242;10.280;2023-03-15T11:25:47;101125.50;;;7.06;100.00
62418;BME280;48456;54.242;10.280;2023-03-15T11:28:18;101141.78;;;7.40;100.00
62418;BME280;48456;54.242;10.280;2023-03-15T11:30:45;101132.84;;;7.96;100.00
62418;BME280;48456;54.242;10.280;2023-03-15T11:33:36;101147.34;;;6.48;100.00
62418;BME280;48456;54.242;10.280;2023-03-15T11:36:01;101159.19;;;5.05;100.00
62418;BME280;48456;54.242;10.280;2023-03-15T11:38:31;101180.00;;;3.99;100.00
62418;BME280;48456;54.242;10.280;2023-03-15T11:40:58;101179.94;;;3.10;100.00
62418;BME280;48456;54.242;10.280;2023-03-15T11:46:04;101183.63;;;2.64;100.00
62418;BME280;48456;54.242;10.280;2023-03-15T11:48:35;101203.47;;;2.58;100.00
62418;BME280;48456;54.242;10.280;2023-03-15T11:51:06;101185.00;;;3.06;100.00
62418;BME280;48456;54.242;10.280;2023-03-15T11:53:34;101193.16;;;3.72;100.00
62418;BME280;48456;54.242;10.280;2023-03-15T11:56:23;101196.38;;;4.89;100.00
62418;BME280;48456;54.242;10.280;2023-03-15T11:59:09;101195.56;;;6.52;100.00
62418;BME280;48456;54.242;10.280;2023-03-15T12:01:41;101177.78;;;7.43;100.00
62418;BME280;48456;54.242;10.280;2023-03-15T12:06:53;101183.56;;;6.65;100.00
62418;BME280;48456;54.242;10.280;2023-03-15T12:11:59;101181.69;;;6.13;100.00
62418;BME280;48456;54.242;10.280;2023-03-15T12:14:29;101164.66;;;6.87;100.00
62418;BME280;48456;54.242;10.280;2023-03-15T12:17:34;101173.28;;;7.98;100.00
62418;BME280;48456;54.242;10.280;2023-03-15T12:19:42;101175.53;;;8.44;100.00
62418;BME280;48456;54.242;10.280;2023-03-15T12:22:15;101178.03;;;7.60;100.00
62418;BME280;48456;54.242;10.280;2023-03-15T12:24:43;101189.19;;;6.37;100.00
62418;BME280;48456;54.242;10.280;2023-03-15T12:27:14;101186.88;;;5.68;100.00
62418;BME280;48456;54.242;10.280;2023-03-15T12:29:45;101194.09;;;5.40;100.00
62418;BME280;48456;54.242;10.280;2023-03-15T12:37:15;101191.25;;;7.06;100.00
62418;BME280;48456;54.242;10.280;2023-03-15T12:39:50;101188.44;;;8.19;100.00
62418;BME280;48456;54.242;10.280;2023-03-15T12:42:58;101189.19;;;8.89;100.00
62418;BME280;48456;54.242;10.280;2023-03-15T12:47:43;101198.81;;;10.25;100.00
62418;BME280;48456;54.242;10.280;2023-03-15T12:52:56;101201.66;;;11.11;100.00
62418;BME280;48456;54.242;10.280;2023-03-15T12:55:26;101210.44;;;10.74;100.00
62418;BME280;48456;54.242;10.280;2023-03-15T12:57:54;101218.91;;;8.68;100.00
62418;BME280;48456;54.242;10.280;2023-03-15T13:00:24;101260.50;;;6.56;100.00
62418;BME280;48456;54.242;10.280;2023-03-15T13:03:06;101267.56;;;5.04;100.00
62418;BME280;48456;54.242;10.280;2023-03-15T13:05:34;101273.03;;;3.88;100.00
62418;BME280;48456;54.242;10.280;2023-03-15T13:08:19;101272.94;;;3.30;100.00
62418;BME280;48456;54.242;10.280;2023-03-15T13:10:52;101279.69;;;2.97;100.00
62418;BME280;48456;54.242;10.280;2023-03-15T13:14:09;101280.25;;;2.88;100.00
62418;BME280;48456;54.242;10.280;2023-03-15T13:21:32;101275.66;;;5.49;100.00
62418;BME280;48456;54.242;10.280;2023-03-15T13:23:59;101267.41;;;6.98;100.00
62418;BME280;48456;54.242;10.280;2023-03-15T13:26:32;101265.34;;;7.88;100.00
62418;BME280;48456;54.242;10.280;2023-03-15T13:31:32;101259.50;;;8.11;100.00
62418;BME280;48456;54.242;10.280;2023-03-15T13:34:12;101269.69;;;7.86;100.00
62418;BME280;48456;54.242;10.280;2023-03-15T13:36:41;101260.41;;;7.51;100.00
62418;BME280;48456;54.242;10.280;2023-03-15T13:39:18;101263.38;;;7.18;100.00
62418;BME280;48456;54.242;10.280;2023-03-15T13:41:45;101265.06;;;7.14;100.00
62418;BME280;48456;54.242;10.280;2023-03-15T13:44:19;101245.53;;;7.53;100.00
62418;BME280;48456;54.242;10.280;2023-03-15T13:46:46;101254.84;;;7.91;100.00
62418;BME280;48456;54.242;10.280;2023-03-15T13:49:13;101251.09;;;7.75;100.00
62418;BME280;48456;54.242;10.280;2023-03-15T13:51:40;101261.59;;;7.72;100.00
62418;BME280;48456;54.242;10.280;2023-03-15T13:54:12;101262.59;;;7.80;100.00
62418;BME280;48456;54.242;10.280;2023-03-15T13:56:54;101265.00;;;7.63;100.00
62418;BME280;48456;54.242;10.280;2023-03-15T13:59:22;101268.88;;;6.82;100.00
62418;BME280;48456;54.242;10.280;2023-03-15T14:01:51;101276.44;;;6.20;100.00
62418;BME280;48456;54.242;10.280;2023-03-15T14:04:20;101282.44;;;5.39;100.00
62418;BME280;48456;54.242;10.280;2023-03-15T14:06:48;101289.53;;;5.10;100.00
62418;BME280;48456;54.242;10.280;2023-03-15T14:09:22;101285.78;;;5.00;100.00
62418;BME280;48456;54.242;10.280;2023-03-15T14:12:04;101290.22;;;5.02;100.00
62418;BME280;48456;54.242;10.280;2023-03-15T14:14:34;101295.03;;;4.85;100.00
62418;BME280;48456;54.242;10.280;2023-03-15T14:17:06;101296.75;;;4.85;100.00
62418;BME280;48456;54.242;10.280;2023-03-15T14:19:33;101295.78;;;5.15;100.00
62418;BME280;48456;54.242;10.280;2023-03-15T14:22:11;101285.06;;;6.15;100.00
62418;BME280;48456;54.242;10.280;2023-03-15T14:24:39;101286.16;;;7.17;100.00
62418;BME280;48456;54.242;10.280;2023-03-15T14:27:07;101292.66;;;7.38;100.00
62418;BME280;48456;54.242;10.280;2023-03-15T14:29:35;101285.16;;;7.10;100.00
62418;BME280;48456;54.242;10.280;2023-03-15T14:32:03;101297.50;;;6.67;100.00
62418;BME280;48456;54.242;10.280;2023-03-15T14:34:36;101300.34;;;5.96;100.00
62418;BME280;48456;54.242;10.280;2023-03-15T14:40:03;101288.34;;;4.97;100.00
62418;BME280;48456;54.242;10.280;2023-03-15T14:42:30;101297.75;;;4.88;100.00
62418;BME280;48456;54.242;10.280;2023-03-15T14:44:56;101292.66;;;4.94;100.00
62418;BME280;48456;54.242;10.280;2023-03-15T14:47:23;101290.34;;;5.42;100.00
62418;BME280;48456;54.242;10.280;2023-03-15T14:49:49;101283.25;;;6.12;100.00